createdAt,value
2022-09-03T00:00:12.518Z,13.07
2022-09-03T00:03:24.538Z,13.67
2022-09-03T00:06:38.698Z,13.27
2022-09-03T00:09:50.642Z,12.27
2022-09-03T00:13:02.776Z,12.63
2022-09-03T00:16:14.058Z,13.03
2022-09-03T00:19:26.233Z,13.00
2022-09-03T00:22:39.783Z,12.43
2022-09-03T00:25:55.323Z,12.87
2022-09-03T00:29:08.810Z,12.13
2022-09-03T00:32:21.499Z,12.43
2022-09-03T00:35:32.536Z,12.23
2022-09-03T00:38:40.991Z,11.80
2022-09-03T00:42:09.205Z,13.23
2022-09-03T00:45:31.061Z,12.47
2022-09-03T00:48:57.426Z,12.50
2022-09-03T00:52:12.660Z,12.43
2022-09-03T00:55:32.871Z,12.53
2022-09-03T00:58:57.279Z,12.13
2022-09-03T01:02:14.445Z,12.40
2022-09-03T01:05:50.498Z,13.40
2022-09-03T01:09:12.136Z,13.30
2022-09-03T01:12:35.084Z,13.83
2022-09-03T01:15:47.939Z,13.17
2022-09-03T01:19:06.627Z,14.63
2022-09-03T01:22:42.403Z,16.47
2022-09-03T01:25:57.246Z,14.33
2022-09-03T01:29:20.327Z,13.83
2022-09-03T01:32:36.903Z,14.77
2022-09-03T01:35:48.894Z,13.33
2022-09-03T01:39:01.510Z,13.57
2022-09-03T01:42:23.687Z,15.47
2022-09-03T01:45:52.796Z,13.50
2022-09-03T01:49:07.390Z,13.97
2022-09-03T01:52:20.132Z,14.70
2022-09-03T01:55:34.623Z,16.37
2022-09-03T01:58:45.775Z,14.13
2022-09-03T02:02:00.126Z,16.73
2022-09-03T02:05:12.226Z,15.27
2022-09-03T02:08:18.687Z,14.40
2022-09-03T02:11:25.048Z,13.97
2022-09-03T02:14:32.484Z,16.00
2022-09-03T02:17:41.752Z,16.73
2022-09-03T02:20:49.835Z,15.57
2022-09-03T02:23:56.401Z,15.40
2022-09-03T02:27:02.742Z,14.70
2022-09-03T02:30:11.046Z,16.20
2022-09-03T02:33:18.883Z,16.13
2022-09-03T02:36:30.872Z,16.13
2022-09-03T02:39:39.495Z,15.13
2022-09-03T02:42:47.982Z,17.60
2022-09-03T02:45:59.808Z,16.77
2022-09-03T02:49:07.903Z,17.10
2022-09-03T02:52:14.355Z,15.37
2022-09-03T02:55:21.447Z,16.10
2022-09-03T02:58:28.990Z,17.10
2022-09-03T03:01:36.634Z,15.97
2022-09-03T03:04:44.839Z,17.33
2022-09-03T03:07:51.558Z,16.10
2022-09-03T03:11:00.104Z,14.77
2022-09-03T03:14:06.917Z,15.87
2022-09-03T03:17:13.469Z,14.43
2022-09-03T03:20:21.299Z,15.20
2022-09-03T03:23:27.963Z,15.13
2022-09-03T03:26:34.582Z,13.57
2022-09-03T03:29:41.125Z,16.07
2022-09-03T03:32:47.409Z,16.63
2022-09-03T03:35:55.398Z,15.27
2022-09-03T03:39:03.047Z,15.63
2022-09-03T03:42:09.710Z,15.43
2022-09-03T03:45:16.553Z,16.33
2022-09-03T03:48:23.250Z,17.87
2022-09-03T03:51:32.902Z,16.53
2022-09-03T03:54:39.559Z,17.47
2022-09-03T03:57:46.054Z,16.50
2022-09-03T04:00:53.185Z,15.23
2022-09-03T04:04:01.075Z,16.37
2022-09-03T04:07:09.837Z,15.53
2022-09-03T04:10:16.592Z,16.83
2022-09-03T04:13:23.363Z,16.60
2022-09-03T04:16:30.208Z,16.77
2022-09-03T04:19:36.609Z,17.03
2022-09-03T04:22:44.426Z,17.97
2022-09-03T04:25:54.000Z,15.50
2022-09-03T04:29:02.370Z,17.63
2022-09-03T04:32:26.493Z,16.23
2022-09-03T04:35:34.179Z,17.10
2022-09-03T04:38:47.660Z,17.00
2022-09-03T04:41:53.890Z,17.00
2022-09-03T04:45:00.298Z,18.13
2022-09-03T04:48:10.370Z,18.70
2022-09-03T04:51:19.599Z,18.23
2022-09-03T04:54:29.251Z,17.63
2022-09-03T04:57:37.894Z,16.13
2022-09-03T05:00:44.243Z,15.83
2022-09-03T05:03:52.272Z,16.67
2022-09-03T05:06:58.906Z,18.03
2022-09-03T05:10:08.755Z,19.60
2022-09-03T05:13:15.038Z,17.63
2022-09-03T05:16:24.524Z,17.50
2022-09-03T05:19:31.727Z,16.13
2022-09-03T05:22:38.502Z,16.87
2022-09-03T05:25:58.344Z,17.87
2022-09-03T05:29:07.995Z,19.37
2022-09-03T05:32:16.403Z,19.87
2022-09-03T05:35:26.078Z,20.03
2022-09-03T05:38:36.770Z,18.70
2022-09-03T05:41:44.718Z,19.20
2022-09-03T05:44:51.417Z,18.63
2022-09-03T05:48:01.686Z,18.70
2022-09-03T05:51:10.166Z,18.00
2022-09-03T05:54:16.193Z,18.27
2022-09-03T05:57:23.650Z,20.33
2022-09-03T06:00:30.138Z,19.70
2022-09-03T06:03:37.396Z,17.87
2022-09-03T06:06:47.285Z,19.00
2022-09-03T06:09:54.619Z,18.67
2022-09-03T06:13:03.766Z,20.13
2022-09-03T06:16:10.258Z,19.80
2022-09-03T06:19:17.349Z,18.23
2022-09-03T06:22:25.507Z,19.30
2022-09-03T06:25:33.603Z,17.17
2022-09-03T06:28:44.406Z,19.33
2022-09-03T06:31:50.908Z,16.77
2022-09-03T06:34:57.369Z,19.43
2022-09-03T06:38:03.654Z,18.43
2022-09-03T06:41:13.201Z,17.30
2022-09-03T06:44:20.906Z,18.70
2022-09-03T06:47:27.526Z,18.77
2022-09-03T06:50:34.778Z,18.23
2022-09-03T06:53:43.857Z,17.17
2022-09-03T06:56:50.455Z,17.53
2022-09-03T06:59:58.094Z,16.80
2022-09-03T07:03:05.635Z,17.00
2022-09-03T07:06:15.107Z,15.10
2022-09-03T07:09:21.807Z,16.03
2022-09-03T07:12:28.354Z,16.47
2022-09-03T07:15:36.697Z,15.80
2022-09-03T07:18:44.145Z,16.57
2022-09-03T07:21:51.041Z,15.23
2022-09-03T07:24:57.336Z,15.43
2022-09-03T07:28:06.836Z,15.13
2022-09-03T07:31:19.141Z,15.37
2022-09-03T07:34:27.067Z,14.80
2022-09-03T07:37:33.997Z,14.93
2022-09-03T07:40:40.363Z,14.20
2022-09-03T07:43:48.265Z,14.47
2022-09-03T07:46:56.384Z,14.27
2022-09-03T07:50:03.817Z,15.33
2022-09-03T07:53:10.382Z,13.57
2022-09-03T07:56:17.169Z,14.40
2022-09-03T07:59:23.939Z,13.77
2022-09-03T08:02:32.070Z,13.13
2022-09-03T08:05:38.913Z,12.47
2022-09-03T08:08:46.094Z,11.23
2022-09-03T08:11:52.546Z,11.37
2022-09-03T08:14:59.376Z,11.13
2022-09-03T08:18:07.538Z,11.00
2022-09-03T08:21:17.802Z,9.83
2022-09-03T08:24:26.335Z,10.17
2022-09-03T08:27:33.567Z,10.07
2022-09-03T08:30:41.781Z,9.90
2022-09-03T08:33:52.078Z,9.77
2022-09-03T08:37:01.390Z,10.30
2022-09-03T08:40:08.862Z,10.00
2022-09-03T08:43:18.919Z,9.77
2022-09-03T08:46:35.642Z,8.77
2022-09-03T08:49:49.646Z,10.33
2022-09-03T08:53:01.909Z,10.70
2022-09-03T08:56:12.471Z,9.23
2022-09-03T08:59:18.929Z,9.30
2022-09-03T09:02:40.596Z,8.50
2022-09-03T09:05:55.580Z,9.03
2022-09-03T09:09:17.987Z,8.53
2022-09-03T09:12:42.753Z,8.37
2022-09-03T09:16:04.095Z,9.03
2022-09-03T09:19:29.771Z,8.17
2022-09-03T09:22:43.771Z,8.60
2022-09-03T09:25:57.549Z,9.27
2022-09-03T09:29:10.255Z,9.17
2022-09-03T09:32:19.352Z,9.20
2022-09-03T09:35:28.757Z,8.83
2022-09-03T09:38:39.344Z,9.30
2022-09-03T09:41:59.525Z,8.97
2022-09-03T09:45:12.108Z,8.77
2022-09-03T09:48:26.371Z,8.80
2022-09-03T09:51:33.475Z,9.60
2022-09-03T09:54:43.663Z,9.67
2022-09-03T09:57:54.454Z,9.13
2022-09-03T10:01:13.135Z,9.50
2022-09-03T10:04:28.771Z,8.33
2022-09-03T10:07:37.303Z,8.80
2022-09-03T10:10:50.081Z,8.05
2022-09-03T10:13:57.423Z,7.97
2022-09-03T10:17:11.690Z,10.02
2022-09-03T10:20:31.433Z,9.00
2022-09-03T10:23:53.673Z,9.95
2022-09-03T10:27:01.686Z,8.95
2022-09-03T10:30:10.145Z,10.25
2022-09-03T10:33:24.279Z,9.95
2022-09-03T10:36:38.871Z,10.02
2022-09-03T10:40:06.881Z,11.68
2022-09-03T10:43:41.777Z,10.85
2022-09-03T10:47:05.713Z,9.30
2022-09-03T10:50:17.396Z,10.15
2022-09-03T10:53:44.256Z,8.65
2022-09-03T10:56:59.010Z,8.40
2022-09-03T11:00:12.672Z,9.32
2022-09-03T11:03:45.643Z,10.40
2022-09-03T11:06:56.469Z,8.90
2022-09-03T11:10:15.122Z,9.02
2022-09-03T11:13:28.604Z,10.20
2022-09-03T11:16:42.682Z,12.38
2022-09-03T11:19:55.567Z,11.93
2022-09-03T11:23:05.918Z,11.05
2022-09-03T11:26:16.635Z,11.75
2022-09-03T11:29:32.515Z,10.70
2022-09-03T11:32:54.250Z,10.73
2022-09-03T11:36:03.301Z,9.18
2022-09-03T11:39:23.340Z,8.15
2022-09-03T11:42:35.201Z,8.93
2022-09-03T11:45:42.158Z,9.25
2022-09-03T11:48:51.654Z,8.27
2022-09-03T11:52:02.295Z,7.30
2022-09-03T11:55:09.490Z,6.70
2022-09-03T11:58:26.495Z,7.32
2022-09-03T12:01:35.416Z,7.10
2022-09-03T12:04:51.244Z,7.68
2022-09-03T12:08:43.621Z,6.95
2022-09-03T12:12:02.460Z,6.90
2022-09-03T12:15:26.938Z,6.40
2022-09-03T12:18:36.619Z,4.25
2022-09-03T12:21:44.437Z,4.20
2022-09-03T12:24:51.699Z,7.93
2022-09-03T12:27:59.830Z,4.85
2022-09-03T12:31:21.460Z,5.28
2022-09-03T12:34:28.911Z,5.63
2022-09-03T12:41:26.582Z,4.85
2022-09-03T12:44:41.134Z,5.10
2022-09-03T12:47:47.508Z,5.28
2022-09-03T12:54:31.689Z,5.30
2022-09-03T12:57:48.545Z,4.30
2022-09-03T13:01:02.237Z,5.32
2022-09-03T13:04:14.073Z,4.20
2022-09-03T13:07:29.629Z,5.32
2022-09-03T13:10:41.972Z,4.15
2022-09-03T13:13:58.318Z,3.53
2022-09-03T13:21:20.098Z,3.50
2022-09-03T13:24:48.787Z,3.60
2022-09-03T13:28:09.293Z,2.90
2022-09-03T13:31:30.286Z,3.25
2022-09-03T13:34:41.319Z,4.30
2022-09-03T13:37:54.411Z,4.18
2022-09-03T13:41:08.303Z,4.10
2022-09-03T13:44:23.949Z,4.60
2022-09-03T13:48:00.676Z,5.38
2022-09-03T13:51:15.772Z,5.30
2022-09-03T13:54:48.250Z,9.27
2022-09-03T13:58:02.055Z,8.25
2022-09-03T14:01:20.180Z,8.30
2022-09-03T14:04:40.093Z,8.87
2022-09-03T14:07:59.391Z,9.13
2022-09-03T14:11:23.233Z,9.60
2022-09-03T14:14:42.642Z,8.97
2022-09-03T14:17:58.802Z,9.47
2022-09-03T14:21:12.444Z,7.97
2022-09-03T14:24:25.789Z,8.20
2022-09-03T14:27:34.832Z,8.60
2022-09-03T14:30:54.881Z,8.10
2022-09-03T14:34:14.907Z,8.40
2022-09-03T14:37:40.640Z,5.20
2022-09-03T14:40:51.303Z,4.93
2022-09-03T14:44:37.642Z,5.90
2022-09-03T14:48:05.911Z,5.33
2022-09-03T14:51:32.675Z,5.00
2022-09-03T14:54:51.895Z,3.63
2022-09-03T14:58:28.283Z,4.13
2022-09-03T15:01:38.834Z,3.95
2022-09-03T15:05:02.269Z,3.70
2022-09-03T15:08:21.926Z,3.20
2022-09-03T15:11:35.244Z,2.38
2022-09-03T15:14:51.380Z,2.40
2022-09-03T15:18:14.717Z,2.70
2022-09-03T15:21:37.773Z,2.20
2022-09-03T15:24:54.890Z,2.80
2022-09-03T15:28:11.727Z,2.55
2022-09-03T15:31:23.962Z,2.22
2022-09-03T15:35:09.086Z,1.90
2022-09-03T15:38:30.078Z,2.45
2022-09-03T15:41:45.767Z,2.80
2022-09-03T15:44:55.559Z,2.45
2022-09-03T15:48:13.399Z,2.28
2022-09-03T15:51:24.446Z,2.42
2022-09-03T15:54:43.472Z,2.75
2022-09-03T15:58:04.991Z,2.45
2022-09-03T16:01:24.759Z,2.88
2022-09-03T16:04:56.911Z,2.90
2022-09-03T16:08:14.577Z,3.00
2022-09-03T16:11:37.227Z,2.90
2022-09-03T16:14:49.996Z,3.65
2022-09-03T16:18:02.615Z,3.15
2022-09-03T16:21:16.211Z,4.35
2022-09-03T16:24:28.804Z,3.58
2022-09-03T16:27:39.617Z,3.58
2022-09-03T16:31:04.031Z,3.95
2022-09-03T16:34:21.882Z,3.42
2022-09-03T16:37:36.354Z,3.78
2022-09-03T16:40:50.166Z,3.45
2022-09-03T16:44:06.038Z,4.00
2022-09-03T16:47:26.602Z,4.75
2022-09-03T16:50:53.157Z,4.33
2022-09-03T16:54:18.546Z,4.00
2022-09-03T16:57:45.901Z,3.70
2022-09-03T17:01:10.109Z,3.53
2022-09-03T17:04:59.287Z,3.30
2022-09-03T17:08:19.710Z,3.30
2022-09-03T17:11:52.825Z,3.47
2022-09-03T17:15:14.631Z,8.90
2022-09-03T17:18:46.883Z,10.27
2022-09-03T17:22:10.720Z,9.67
2022-09-03T17:25:30.447Z,8.03
2022-09-03T17:28:57.823Z,6.53
2022-09-03T17:32:22.511Z,5.47
2022-09-03T17:35:39.511Z,5.07
2022-09-03T17:39:32.886Z,4.83
2022-09-03T17:42:53.027Z,5.30
2022-09-03T17:46:17.440Z,4.00
2022-09-03T17:49:28.254Z,5.77
2022-09-03T17:52:43.842Z,5.20
2022-09-03T17:55:58.882Z,5.60
2022-09-03T17:59:15.760Z,5.27
2022-09-03T18:02:38.810Z,5.87
2022-09-03T18:05:49.682Z,5.93
2022-09-03T18:09:02.873Z,5.60
2022-09-03T18:12:19.520Z,7.57
2022-09-03T18:15:31.103Z,8.10
2022-09-03T18:18:46.290Z,9.03
2022-09-03T18:22:10.743Z,9.67
2022-09-03T18:25:36.058Z,10.00
2022-09-03T18:29:08.011Z,9.60
2022-09-03T18:32:31.924Z,10.83
2022-09-03T18:35:56.266Z,12.60
2022-09-03T18:39:32.634Z,12.50
2022-09-03T18:43:09.958Z,10.93
2022-09-03T18:48:01.011Z,11.03
2022-09-03T18:50:36.245Z,9.27
2022-09-03T18:54:15.698Z,10.33
2022-09-03T18:57:43.989Z,10.80
2022-09-03T19:01:24.313Z,11.20
2022-09-03T19:05:07.139Z,12.00
2022-09-03T19:08:39.529Z,9.90
2022-09-03T19:12:20.048Z,12.77
2022-09-03T19:15:48.214Z,11.17
2022-09-03T19:19:36.076Z,14.30
2022-09-03T19:23:01.854Z,13.33
2022-09-03T19:26:38.335Z,14.90
2022-09-03T19:30:21.091Z,16.33
2022-09-03T19:33:53.550Z,15.03
2022-09-03T19:37:25.714Z,14.93
2022-09-03T19:41:15.372Z,18.17
2022-09-03T19:44:57.903Z,16.17
2022-09-03T19:48:35.691Z,19.77
2022-09-03T19:52:08.959Z,22.00
2022-09-03T19:55:39.691Z,20.33
2022-09-03T19:59:11.165Z,25.07
2022-09-03T20:02:34.999Z,25.97
2022-09-03T20:05:59.690Z,28.70
2022-09-03T20:09:28.108Z,29.67
2022-09-03T20:12:38.982Z,32.87
2022-09-03T20:15:57.367Z,33.63
2022-09-03T20:19:11.439Z,33.40
2022-09-03T20:22:29.850Z,36.97
2022-09-03T20:25:53.006Z,37.90
2022-09-03T20:29:33.506Z,38.13
2022-09-03T20:33:03.677Z,40.87
2022-09-03T20:36:24.901Z,41.00
2022-09-03T20:40:04.713Z,43.60
2022-09-03T20:43:51.404Z,42.27
2022-09-03T20:47:21.274Z,43.03
2022-09-03T20:50:46.587Z,40.37
2022-09-03T20:54:12.213Z,42.67
2022-09-03T20:57:30.893Z,43.27
2022-09-03T21:00:49.189Z,42.23
2022-09-03T21:04:10.955Z,45.47
2022-09-03T21:07:28.307Z,43.43
2022-09-03T21:10:42.019Z,43.10
2022-09-03T21:13:56.640Z,43.53
2022-09-03T21:17:19.874Z,41.60
2022-09-03T21:20:35.066Z,38.97
2022-09-03T21:23:45.436Z,39.20
2022-09-03T21:26:57.075Z,37.73
2022-09-03T21:30:08.916Z,37.20
2022-09-03T21:33:21.430Z,37.47
2022-09-03T21:36:34.303Z,35.97
2022-09-03T21:39:48.112Z,35.87
2022-09-03T21:43:00.389Z,38.00
2022-09-03T21:46:15.255Z,35.30
2022-09-03T21:49:29.314Z,33.70
2022-09-03T21:52:43.908Z,34.17
2022-09-03T21:56:15.378Z,33.13
2022-09-03T22:00:17.645Z,34.50
2022-09-03T22:03:24.016Z,31.83
2022-09-03T22:06:40.179Z,33.83
2022-09-03T22:09:53.066Z,33.33
2022-09-03T22:13:17.078Z,34.53
2022-09-03T22:16:30.242Z,33.23
2022-09-03T22:19:37.615Z,31.67
2022-09-03T22:22:56.430Z,31.40
2022-09-03T22:26:11.982Z,30.73
2022-09-03T22:29:34.991Z,31.20
2022-09-03T22:32:59.739Z,34.77
2022-09-03T22:36:14.470Z,31.37
2022-09-03T22:39:36.615Z,33.47
2022-09-03T22:43:02.843Z,35.13
2022-09-03T22:46:14.892Z,35.60
2022-09-03T22:49:36.455Z,33.87
2022-09-03T22:52:49.317Z,34.27
2022-09-03T22:56:05.904Z,34.03
2022-09-03T22:59:20.213Z,34.83
2022-09-03T23:02:31.750Z,33.33
2022-09-03T23:05:46.311Z,33.70
2022-09-03T23:09:01.346Z,33.97
2022-09-03T23:12:13.851Z,35.17
2022-09-03T23:15:30.444Z,33.50
2022-09-03T23:18:44.438Z,35.13
2022-09-03T23:21:58.447Z,36.00
2022-09-03T23:25:11.558Z,35.80
2022-09-03T23:28:24.866Z,38.53
2022-09-03T23:31:31.477Z,36.40
2022-09-03T23:34:40.660Z,37.80
2022-09-03T23:38:02.219Z,37.87
2022-09-03T23:41:16.948Z,37.03
2022-09-03T23:44:45.670Z,34.80
2022-09-03T23:48:01.367Z,33.70
2022-09-03T23:51:17.133Z,34.57
2022-09-03T23:54:34.907Z,39.37
2022-09-03T23:57:44.550Z,36.13
